createdAt,value
2023-05-01T00:00:13.670Z,1010.58
2023-05-01T00:01:13.627Z,1010.55
2023-05-01T00:02:13.613Z,1010.55
2023-05-01T00:03:13.725Z,1010.57
2023-05-01T00:04:13.745Z,1010.51
2023-05-01T00:05:13.655Z,1010.50
2023-05-01T00:06:13.595Z,1010.51
2023-05-01T00:07:14.470Z,1010.43
2023-05-01T00:08:13.549Z,1010.44
2023-05-01T00:09:13.583Z,1010.47
2023-05-01T00:10:13.543Z,1010.40
2023-05-01T00:11:13.550Z,1010.39
2023-05-01T00:12:13.500Z,1010.37
2023-05-01T00:13:13.513Z,1010.39
2023-05-01T00:14:13.482Z,1010.41
2023-05-01T00:15:13.465Z,1010.36
2023-05-01T00:16:13.520Z,1010.37
2023-05-01T00:17:13.499Z,1010.34
2023-05-01T00:18:13.474Z,1010.35
2023-05-01T00:19:13.416Z,1010.36
2023-05-01T00:20:13.380Z,1010.31
2023-05-01T00:21:13.396Z,1010.30
2023-05-01T00:22:13.398Z,1010.34
2023-05-01T00:23:13.411Z,1010.33
2023-05-01T00:24:13.384Z,1010.30
2023-05-01T00:25:13.359Z,1010.27
2023-05-01T00:26:13.345Z,1010.28
2023-05-01T00:27:13.338Z,1010.29
2023-05-01T00:28:13.395Z,1010.27
2023-05-01T00:29:13.330Z,1010.27
2023-05-01T00:30:13.314Z,1010.26
2023-05-01T00:31:13.333Z,1010.25
2023-05-01T00:32:13.332Z,1010.24
2023-05-01T00:33:13.281Z,1010.21
2023-05-01T00:34:13.271Z,1010.20
2023-05-01T00:35:13.253Z,1010.22
2023-05-01T00:36:13.267Z,1010.25
2023-05-01T00:37:13.254Z,1010.23
2023-05-01T00:38:13.233Z,1010.19
2023-05-01T00:39:13.243Z,1010.21
2023-05-01T00:40:13.212Z,1010.18
2023-05-01T00:41:13.211Z,1010.21
2023-05-01T00:42:13.188Z,1010.18
2023-05-01T00:43:13.188Z,1010.20
2023-05-01T00:44:13.142Z,1010.20
2023-05-01T00:45:13.149Z,1010.19
2023-05-01T00:46:13.179Z,1010.17
2023-05-01T00:47:13.126Z,1010.19
2023-05-01T00:48:13.116Z,1010.19
2023-05-01T00:49:13.113Z,1010.18
2023-05-01T00:50:13.098Z,1010.08
2023-05-01T00:51:13.087Z,1010.11
2023-05-01T00:52:13.070Z,1010.13
2023-05-01T00:53:13.071Z,1010.10
2023-05-01T00:54:13.113Z,1010.06
2023-05-01T00:55:13.081Z,1010.07
2023-05-01T00:56:13.025Z,1010.05
2023-05-01T00:57:13.018Z,1010.06
2023-05-01T00:58:13.020Z,1010.01
2023-05-01T00:59:13.037Z,1010.02
2023-05-01T01:00:13.050Z,1009.96
2023-05-01T01:01:12.991Z,1010.01
2023-05-01T01:02:12.984Z,1009.99
2023-05-01T01:03:12.960Z,1009.97
2023-05-01T01:04:12.970Z,1009.96
2023-05-01T01:05:12.938Z,1009.97
2023-05-01T01:06:13.012Z,1009.97
2023-05-01T01:07:12.991Z,1009.93
2023-05-01T01:08:12.909Z,1009.92
2023-05-01T01:09:12.917Z,1009.92
2023-05-01T01:10:12.876Z,1009.91
2023-05-01T01:11:12.890Z,1009.89
2023-05-01T01:12:12.861Z,1009.90
2023-05-01T01:13:12.896Z,1009.88
2023-05-01T01:14:12.845Z,1009.86
2023-05-01T01:15:12.825Z,1009.84
2023-05-01T01:16:12.857Z,1009.84
2023-05-01T01:17:12.975Z,1009.79
2023-05-01T01:18:12.835Z,1009.80
2023-05-01T01:19:12.841Z,1009.77
2023-05-01T01:20:12.791Z,1009.77
2023-05-01T01:21:12.779Z,1009.77
2023-05-01T01:22:12.758Z,1009.76
2023-05-01T01:23:12.771Z,1009.75
2023-05-01T01:24:12.749Z,1009.72
2023-05-01T01:25:12.734Z,1009.74
2023-05-01T01:26:12.708Z,1009.71
2023-05-01T01:27:12.722Z,1009.72
2023-05-01T01:28:12.683Z,1009.67
2023-05-01T01:29:12.693Z,1009.67
2023-05-01T01:30:12.755Z,1009.69
2023-05-01T01:31:12.734Z,1009.64
2023-05-01T01:32:12.634Z,1009.60
2023-05-01T01:33:12.672Z,1009.58
2023-05-01T01:34:12.630Z,1009.64
2023-05-01T01:35:12.633Z,1009.62
2023-05-01T01:36:12.608Z,1009.62
2023-05-01T01:37:12.598Z,1009.55
2023-05-01T01:38:12.603Z,1009.58
2023-05-01T01:39:12.605Z,1009.58
2023-05-01T01:40:12.587Z,1009.54
2023-05-01T01:41:12.588Z,1009.54
2023-05-01T01:42:12.545Z,1009.52
2023-05-01T01:43:12.532Z,1009.53
2023-05-01T01:44:12.517Z,1009.53
2023-05-01T01:45:12.538Z,1009.56
2023-05-01T01:46:12.563Z,1009.55
2023-05-01T01:47:12.496Z,1009.55
2023-05-01T01:48:12.569Z,1009.51
2023-05-01T01:49:12.468Z,1009.51
2023-05-01T01:50:12.463Z,1009.46
2023-05-01T01:51:12.456Z,1009.48
2023-05-01T01:52:12.427Z,1009.47
2023-05-01T01:53:12.436Z,1009.49
2023-05-01T01:54:12.400Z,1009.46
2023-05-01T01:55:12.400Z,1009.44
2023-05-01T01:56:12.395Z,1009.41
2023-05-01T01:57:12.380Z,1009.44
2023-05-01T01:58:12.385Z,1009.39
2023-05-01T01:59:12.397Z,1009.42
2023-05-01T02:00:12.335Z,1009.40
2023-05-01T02:01:12.542Z,1009.42
2023-05-01T02:02:12.386Z,1009.38
2023-05-01T02:03:12.455Z,1009.34
2023-05-01T02:04:12.317Z,1009.35
2023-05-01T02:05:12.324Z,1009.31
2023-05-01T02:06:12.287Z,1009.33
2023-05-01T02:07:12.269Z,1009.31
2023-05-01T02:08:12.275Z,1009.33
2023-05-01T02:09:12.266Z,1009.35
2023-05-01T02:10:12.244Z,1009.33
2023-05-01T02:11:12.261Z,1009.33
2023-05-01T02:12:12.230Z,1009.32
2023-05-01T02:13:12.236Z,1009.33
2023-05-01T02:14:12.192Z,1009.33
2023-05-01T02:15:12.196Z,1009.31
2023-05-01T02:16:12.405Z,1009.29
2023-05-01T02:17:12.195Z,1009.27
2023-05-01T02:18:12.154Z,1009.22
2023-05-01T02:19:12.170Z,1009.26
2023-05-01T02:20:12.171Z,1009.23
2023-05-01T02:21:12.128Z,1009.20
2023-05-01T02:22:12.103Z,1009.21
2023-05-01T02:23:12.129Z,1009.13
2023-05-01T02:24:12.099Z,1009.17
2023-05-01T02:25:12.091Z,1009.16
2023-05-01T02:26:12.069Z,1009.14
2023-05-01T02:27:12.082Z,1009.11
2023-05-01T02:28:12.054Z,1009.12
2023-05-01T02:29:12.069Z,1009.10
2023-05-01T02:30:12.034Z,1009.11
2023-05-01T02:31:12.059Z,1009.07
2023-05-01T02:32:12.333Z,1009.12
2023-05-01T02:33:12.032Z,1009.11
2023-05-01T02:34:12.036Z,1009.07
2023-05-01T02:35:11.988Z,1009.10
2023-05-01T02:36:11.969Z,1009.08
2023-05-01T02:37:12.013Z,1009.05
2023-05-01T02:38:11.991Z,1009.02
2023-05-01T02:39:12.017Z,1009.02
2023-05-01T02:40:11.917Z,1009.00
2023-05-01T02:41:11.925Z,1008.99
2023-05-01T02:42:11.900Z,1008.97
2023-05-01T02:43:11.895Z,1008.98
2023-05-01T02:44:11.877Z,1008.97
2023-05-01T02:45:11.896Z,1008.95
2023-05-01T02:46:11.908Z,1008.91
2023-05-01T02:47:11.902Z,1008.92
2023-05-01T02:48:11.916Z,1008.90
2023-05-01T02:49:11.843Z,1008.96
2023-05-01T02:50:11.846Z,1008.94
2023-05-01T02:51:11.848Z,1008.88
2023-05-01T02:52:11.842Z,1008.91
2023-05-01T02:53:11.835Z,1008.88
2023-05-01T02:54:11.791Z,1008.82
2023-05-01T02:55:11.797Z,1008.84
2023-05-01T02:56:11.837Z,1008.79
2023-05-01T02:57:11.728Z,1008.82
2023-05-01T02:58:11.703Z,1008.78
2023-05-01T02:59:11.725Z,1008.78
2023-05-01T03:00:11.730Z,1008.74
2023-05-01T03:01:11.767Z,1008.76
2023-05-01T03:02:11.695Z,1008.71
2023-05-01T03:03:11.760Z,1008.76
2023-05-01T03:04:11.830Z,1008.76
2023-05-01T03:05:11.672Z,1008.73
2023-05-01T03:06:11.698Z,1008.78
2023-05-01T03:07:11.655Z,1008.76
2023-05-01T03:08:11.708Z,1008.73
2023-05-01T03:09:11.618Z,1008.72
2023-05-01T03:10:11.628Z,1008.63
2023-05-01T03:11:11.603Z,1008.64
2023-05-01T03:12:11.599Z,1008.65
2023-05-01T03:13:11.582Z,1008.62
2023-05-01T03:14:11.607Z,1008.61
2023-05-01T03:15:11.560Z,1008.59
2023-05-01T03:16:11.605Z,1008.62
2023-05-01T03:17:11.551Z,1008.56
2023-05-01T03:18:11.594Z,1008.59
2023-05-01T03:19:11.495Z,1008.61
2023-05-01T03:20:11.495Z,1008.58
2023-05-01T03:21:11.556Z,1008.55
2023-05-01T03:22:11.456Z,1008.55
2023-05-01T03:23:11.439Z,1008.51
2023-05-01T03:24:11.436Z,1008.49
2023-05-01T03:25:11.429Z,1008.49
2023-05-01T03:26:11.444Z,1008.44
2023-05-01T03:27:11.432Z,1008.49
2023-05-01T03:28:11.434Z,1008.47
2023-05-01T03:29:11.394Z,1008.47
2023-05-01T03:30:11.381Z,1008.41
2023-05-01T03:31:11.375Z,1008.41
2023-05-01T03:32:11.441Z,1008.39
2023-05-01T03:33:11.441Z,1008.42
2023-05-01T03:34:11.397Z,1008.37
2023-05-01T03:35:11.361Z,1008.42
2023-05-01T03:36:11.338Z,1008.38
2023-05-01T03:37:11.321Z,1008.38
2023-05-01T03:38:11.323Z,1008.37
2023-05-01T03:39:11.283Z,1008.37
2023-05-01T03:40:11.297Z,1008.33
2023-05-01T03:41:11.845Z,1008.34
2023-05-01T03:42:11.271Z,1008.36
2023-05-01T03:43:11.268Z,1008.34
2023-05-01T03:44:11.245Z,1008.33
2023-05-01T03:45:11.232Z,1008.32
2023-05-01T03:46:11.303Z,1008.31
2023-05-01T03:47:11.200Z,1008.29
2023-05-01T03:48:11.323Z,1008.30
2023-05-01T03:49:11.190Z,1008.30
2023-05-01T03:50:11.210Z,1008.29
2023-05-01T03:51:11.165Z,1008.24
2023-05-01T03:52:11.204Z,1008.23
2023-05-01T03:53:11.166Z,1008.22
2023-05-01T03:54:11.146Z,1008.22
2023-05-01T03:55:11.133Z,1008.22
2023-05-01T03:56:11.141Z,1008.22
2023-05-01T03:57:11.135Z,1008.18
2023-05-01T03:58:11.152Z,1008.18
2023-05-01T03:59:11.102Z,1008.16
2023-05-01T04:00:11.088Z,1008.17
2023-05-01T04:01:11.042Z,1008.18
2023-05-01T04:02:11.106Z,1008.16
2023-05-01T04:03:11.074Z,1008.12
2023-05-01T04:04:11.207Z,1008.09
2023-05-01T04:05:11.035Z,1008.11
2023-05-01T04:06:11.103Z,1008.09
2023-05-01T04:07:10.999Z,1008.05
2023-05-01T04:08:10.992Z,1008.10
2023-05-01T04:09:10.982Z,1008.09
2023-05-01T04:10:10.989Z,1008.06
2023-05-01T04:11:10.939Z,1008.07
2023-05-01T04:12:10.949Z,1008.10
2023-05-01T04:13:10.902Z,1008.11
2023-05-01T04:14:10.935Z,1008.14
2023-05-01T04:15:10.897Z,1008.11
2023-05-01T04:16:11.047Z,1008.14
2023-05-01T04:17:10.891Z,1008.14
2023-05-01T04:18:10.961Z,1008.15
2023-05-01T04:19:10.860Z,1008.16
2023-05-01T04:20:10.871Z,1008.18
2023-05-01T04:21:10.852Z,1008.16
2023-05-01T04:22:10.855Z,1008.14
2023-05-01T04:23:10.817Z,1008.15
2023-05-01T04:24:10.863Z,1008.14
2023-05-01T04:25:10.809Z,1008.17
2023-05-01T04:26:10.811Z,1008.14
2023-05-01T04:27:10.785Z,1008.12
2023-05-01T04:28:10.774Z,1008.10
2023-05-01T04:29:10.751Z,1008.08
2023-05-01T04:30:10.762Z,1008.07
2023-05-01T04:31:10.794Z,1008.06
2023-05-01T04:32:10.734Z,1008.06
2023-05-01T04:33:10.785Z,1008.03
2023-05-01T04:34:10.740Z,1007.98
2023-05-01T04:35:10.707Z,1007.99
2023-05-01T04:36:11.105Z,1007.97
2023-05-01T04:37:10.678Z,1007.96
2023-05-01T04:38:10.806Z,1007.91
2023-05-01T04:39:10.671Z,1007.95
2023-05-01T04:40:11.778Z,1007.93
2023-05-01T04:41:10.631Z,1007.94
2023-05-01T04:42:10.635Z,1007.91
2023-05-01T04:43:10.605Z,1007.96
2023-05-01T04:44:10.624Z,1007.91
2023-05-01T04:45:10.576Z,1007.91
2023-05-01T04:46:10.636Z,1007.92
2023-05-01T04:47:10.633Z,1007.90
2023-05-01T04:48:10.617Z,1007.88
2023-05-01T04:49:10.540Z,1007.91
2023-05-01T04:50:10.552Z,1007.93
2023-05-01T04:51:10.528Z,1007.90
2023-05-01T04:52:10.555Z,1007.87
2023-05-01T04:53:10.535Z,1007.85
2023-05-01T04:54:10.503Z,1007.83
2023-05-01T04:55:10.494Z,1007.86
2023-05-01T04:56:10.485Z,1007.86
2023-05-01T04:57:10.471Z,1007.86
2023-05-01T04:58:10.451Z,1007.84
2023-05-01T04:59:10.427Z,1007.86
2023-05-01T05:00:10.431Z,1007.80
2023-05-01T05:01:10.475Z,1007.82
2023-05-01T05:02:10.405Z,1007.76
2023-05-01T05:03:10.550Z,1007.80
2023-05-01T05:04:10.436Z,1007.79
2023-05-01T05:05:10.381Z,1007.80
2023-05-01T05:06:10.422Z,1007.75
2023-05-01T05:07:10.387Z,1007.79
2023-05-01T05:08:10.357Z,1007.77
2023-05-01T05:09:10.360Z,1007.69
2023-05-01T05:10:10.333Z,1007.71
2023-05-01T05:11:10.327Z,1007.78
2023-05-01T05:12:10.353Z,1007.78
2023-05-01T05:13:10.291Z,1007.76
2023-05-01T05:14:10.271Z,1007.82
2023-05-01T05:15:10.275Z,1007.80
2023-05-01T05:16:10.332Z,1007.81
2023-05-01T05:17:10.264Z,1007.83
2023-05-01T05:18:10.329Z,1007.77
2023-05-01T05:19:10.209Z,1007.80
2023-05-01T05:20:10.253Z,1007.78
2023-05-01T05:21:10.190Z,1007.79
2023-05-01T05:22:10.199Z,1007.69
2023-05-01T05:23:10.199Z,1007.75
2023-05-01T05:24:10.186Z,1007.70
2023-05-01T05:25:10.181Z,1007.73
2023-05-01T05:26:10.191Z,1007.72
2023-05-01T05:27:10.134Z,1007.68
2023-05-01T05:28:10.135Z,1007.72
2023-05-01T05:29:10.099Z,1007.74
2023-05-01T05:30:17.176Z,1007.64
2023-05-01T05:31:10.072Z,1007.67
2023-05-01T05:32:10.140Z,1007.65
2023-05-01T05:33:13.943Z,1007.64
2023-05-01T05:34:10.079Z,1007.63
2023-05-01T05:35:10.031Z,1007.65
2023-05-01T05:36:10.070Z,1007.69
2023-05-01T05:37:10.033Z,1007.63
2023-05-01T05:38:10.154Z,1007.62
2023-05-01T05:39:09.996Z,1007.62
2023-05-01T05:40:09.995Z,1007.62
2023-05-01T05:41:10.019Z,1007.60
2023-05-01T05:42:09.973Z,1007.62
2023-05-01T05:43:10.003Z,1007.59
2023-05-01T05:44:09.943Z,1007.58
2023-05-01T05:45:09.940Z,1007.60
2023-05-01T05:46:09.983Z,1007.58
2023-05-01T05:47:09.912Z,1007.55
2023-05-01T05:48:10.006Z,1007.55
2023-05-01T05:49:09.880Z,1007.51
2023-05-01T05:50:09.980Z,1007.49
2023-05-01T05:51:09.894Z,1007.50
2023-05-01T05:52:09.880Z,1007.50
2023-05-01T05:53:09.867Z,1007.50
2023-05-01T05:54:09.845Z,1007.49
2023-05-01T05:55:09.835Z,1007.46
2023-05-01T05:56:09.842Z,1007.47
2023-05-01T05:57:09.828Z,1007.47
2023-05-01T05:58:09.803Z,1007.49
2023-05-01T05:59:09.788Z,1007.45
2023-05-01T06:00:09.775Z,1007.41
2023-05-01T06:01:09.784Z,1007.45
2023-05-01T06:02:09.906Z,1007.50
2023-05-01T06:03:09.812Z,1007.45
2023-05-01T06:04:09.734Z,1007.43
2023-05-01T06:05:09.793Z,1007.43
2023-05-01T06:06:10.102Z,1007.43
2023-05-01T06:07:09.713Z,1007.43
2023-05-01T06:08:09.710Z,1007.43
2023-05-01T06:09:09.752Z,1007.41
2023-05-01T06:10:09.675Z,1007.37
2023-05-01T06:11:09.669Z,1007.34
2023-05-01T06:12:09.675Z,1007.36
2023-05-01T06:13:13.251Z,1007.34
2023-05-01T06:14:09.640Z,1007.37
2023-05-01T06:15:09.600Z,1007.39
2023-05-01T06:16:09.736Z,1007.38
2023-05-01T06:17:09.616Z,1007.41
2023-05-01T06:18:09.606Z,1007.42
2023-05-01T06:19:09.594Z,1007.42
2023-05-01T06:20:09.577Z,1007.42
2023-05-01T06:21:09.541Z,1007.43
2023-05-01T06:22:09.555Z,1007.34
2023-05-01T06:23:09.694Z,1007.35
2023-05-01T06:24:09.543Z,1007.36
2023-05-01T06:25:09.545Z,1007.36
2023-05-01T06:26:09.535Z,1007.34
2023-05-01T06:27:09.484Z,1007.34
2023-05-01T06:28:09.475Z,1007.29
2023-05-01T06:29:09.476Z,1007.32
2023-05-01T06:30:09.507Z,1007.26
2023-05-01T06:31:09.545Z,1007.24
2023-05-01T06:32:09.436Z,1007.30
2023-05-01T06:33:09.494Z,1007.23
2023-05-01T06:34:09.412Z,1007.28
2023-05-01T06:35:09.393Z,1007.24
2023-05-01T06:36:09.420Z,1007.23
2023-05-01T06:37:09.402Z,1007.19
2023-05-01T06:38:09.378Z,1007.25
2023-05-01T06:39:09.398Z,1007.21
2023-05-01T06:40:09.384Z,1007.21
2023-05-01T06:41:09.389Z,1007.23
2023-05-01T06:42:09.346Z,1007.21
2023-05-01T06:43:09.309Z,1007.21
2023-05-01T06:44:09.308Z,1007.25
2023-05-01T06:45:09.279Z,1007.16
2023-05-01T06:46:09.314Z,1007.17
2023-05-01T06:47:09.326Z,1007.17
2023-05-01T06:48:09.312Z,1007.16
2023-05-01T06:49:09.258Z,1007.12
2023-05-01T06:50:09.297Z,1007.12
2023-05-01T06:51:09.220Z,1007.08
2023-05-01T06:52:09.233Z,1007.08
2023-05-01T06:53:09.204Z,1007.09
2023-05-01T06:54:09.231Z,1007.04
2023-05-01T06:55:09.193Z,1007.04
2023-05-01T06:56:09.191Z,1007.04
2023-05-01T06:57:09.145Z,1007.03
2023-05-01T06:58:22.498Z,1007.05
2023-05-01T06:59:10.130Z,1007.04
2023-05-01T07:00:09.153Z,1007.08
2023-05-01T07:01:09.140Z,1007.07
2023-05-01T07:02:09.154Z,1007.03
2023-05-01T07:03:09.130Z,1007.03
2023-05-01T07:04:09.118Z,1007.05
2023-05-01T07:05:09.115Z,1007.04
2023-05-01T07:06:09.177Z,1007.04
2023-05-01T07:07:09.050Z,1007.02
2023-05-01T07:08:09.060Z,1007.02
2023-05-01T07:09:09.026Z,1007.01
2023-05-01T07:10:09.044Z,1007.03
2023-05-01T07:11:09.043Z,1007.07
2023-05-01T07:12:10.018Z,1007.03
2023-05-01T07:13:09.002Z,1007.00
2023-05-01T07:14:08.967Z,1006.98
2023-05-01T07:15:08.945Z,1007.01
2023-05-01T07:16:08.991Z,1006.96
2023-05-01T07:17:08.940Z,1006.97
2023-05-01T07:18:09.059Z,1006.94
2023-05-01T07:19:08.921Z,1006.97
2023-05-01T07:20:08.901Z,1006.99
2023-05-01T07:21:08.892Z,1006.97
2023-05-01T07:22:08.875Z,1006.95
2023-05-01T07:23:08.882Z,1006.98
2023-05-01T07:24:08.853Z,1007.03
2023-05-01T07:25:08.852Z,1006.97
2023-05-01T07:26:08.829Z,1006.93
2023-05-01T07:27:08.854Z,1006.93
2023-05-01T07:28:08.812Z,1006.98
2023-05-01T07:29:08.831Z,1006.95
2023-05-01T07:30:08.798Z,1006.87
2023-05-01T07:31:08.805Z,1006.87
2023-05-01T07:32:08.863Z,1006.90
2023-05-01T07:33:08.817Z,1006.88
2023-05-01T07:34:08.762Z,1006.92
2023-05-01T07:35:08.759Z,1006.92
2023-05-01T07:36:08.748Z,1006.83
2023-05-01T07:37:08.782Z,1006.88
2023-05-01T07:38:08.739Z,1006.88
2023-05-01T07:39:08.715Z,1006.89
2023-05-01T07:40:08.679Z,1006.89
2023-05-01T07:41:08.695Z,1006.84
2023-05-01T07:42:08.805Z,1006.88
2023-05-01T07:43:08.663Z,1006.84
2023-05-01T07:44:08.646Z,1006.83
2023-05-01T07:45:08.657Z,1006.84
2023-05-01T07:46:08.667Z,1006.82
2023-05-01T07:47:08.607Z,1006.83
2023-05-01T07:48:08.717Z,1006.79
2023-05-01T07:49:08.603Z,1006.77
2023-05-01T07:50:08.558Z,1006.78
2023-05-01T07:51:08.580Z,1006.77
2023-05-01T07:52:08.553Z,1006.78
2023-05-01T07:53:08.614Z,1006.77
2023-05-01T07:54:08.529Z,1006.75
2023-05-01T07:55:08.572Z,1006.70
2023-05-01T07:56:08.592Z,1006.71
2023-05-01T07:57:08.532Z,1006.71
2023-05-01T07:58:08.492Z,1006.64
2023-05-01T07:59:08.502Z,1006.62
2023-05-01T08:00:08.473Z,1006.64
2023-05-01T08:01:08.459Z,1006.62
2023-05-01T08:02:08.448Z,1006.61
2023-05-01T08:03:08.704Z,1006.60
2023-05-01T08:04:08.525Z,1006.61
2023-05-01T08:05:08.455Z,1006.61
2023-05-01T08:06:08.505Z,1006.63
2023-05-01T08:07:08.400Z,1006.61
2023-05-01T08:08:08.379Z,1006.63
2023-05-01T08:09:08.376Z,1006.61
2023-05-01T08:10:08.365Z,1006.61
2023-05-01T08:11:08.374Z,1006.58
2023-05-01T08:12:08.342Z,1006.62
2023-05-01T08:13:08.371Z,1006.60
2023-05-01T08:14:08.308Z,1006.56
2023-05-01T08:15:08.320Z,1006.58
2023-05-01T08:16:08.304Z,1006.52
2023-05-01T08:17:08.290Z,1006.53
2023-05-01T08:18:08.300Z,1006.54
2023-05-01T08:19:08.281Z,1006.52
2023-05-01T08:20:08.247Z,1006.56
2023-05-01T08:21:08.240Z,1006.50
2023-05-01T08:22:08.222Z,1006.53
2023-05-01T08:23:08.233Z,1006.56
2023-05-01T08:24:08.194Z,1006.55
2023-05-01T08:25:08.218Z,1006.53
2023-05-01T08:26:08.192Z,1006.54
2023-05-01T08:27:08.181Z,1006.48
2023-05-01T08:28:08.153Z,1006.52
2023-05-01T08:29:08.183Z,1006.54
2023-05-01T08:30:08.177Z,1006.48
2023-05-01T08:31:08.204Z,1006.47
2023-05-01T08:32:08.141Z,1006.47
2023-05-01T08:33:08.170Z,1006.47
2023-05-01T08:34:08.104Z,1006.46
2023-05-01T08:35:08.093Z,1006.39
2023-05-01T08:36:08.077Z,1006.42
2023-05-01T08:37:08.083Z,1006.41
2023-05-01T08:38:08.050Z,1006.38
2023-05-01T08:39:08.033Z,1006.39
2023-05-01T08:40:08.028Z,1006.39
2023-05-01T08:41:08.032Z,1006.39
2023-05-01T08:42:08.006Z,1006.40
2023-05-01T08:43:07.996Z,1006.37
2023-05-01T08:44:08.086Z,1006.38
2023-05-01T08:45:07.992Z,1006.34
2023-05-01T08:46:08.035Z,1006.33
2023-05-01T08:47:08.157Z,1006.36
2023-05-01T08:48:08.080Z,1006.33
2023-05-01T08:49:07.941Z,1006.34
2023-05-01T08:50:07.910Z,1006.32
2023-05-01T08:51:07.914Z,1006.29
2023-05-01T08:52:07.891Z,1006.33
2023-05-01T08:53:07.895Z,1006.32
2023-05-01T08:54:07.892Z,1006.31
2023-05-01T08:55:07.882Z,1006.32
2023-05-01T08:56:07.834Z,1006.27
2023-05-01T08:57:10.253Z,1006.29
2023-05-01T08:58:07.845Z,1006.27
2023-05-01T08:59:07.817Z,1006.25
2023-05-01T09:00:07.805Z,1006.24
2023-05-01T09:01:07.867Z,1006.28
2023-05-01T09:02:08.045Z,1006.29
2023-05-01T09:03:07.901Z,1006.27
2023-05-01T09:04:07.772Z,1006.24
2023-05-01T09:05:07.765Z,1006.22
2023-05-01T09:06:07.798Z,1006.25
2023-05-01T09:07:07.762Z,1006.24
2023-05-01T09:08:07.729Z,1006.24
2023-05-01T09:09:07.699Z,1006.20
2023-05-01T09:10:07.696Z,1006.23
2023-05-01T09:11:07.700Z,1006.18
2023-05-01T09:12:07.691Z,1006.21
2023-05-01T09:13:07.671Z,1006.15
2023-05-01T09:14:07.642Z,1006.19
2023-05-01T09:15:07.711Z,1006.14
2023-05-01T09:16:07.717Z,1006.16
2023-05-01T09:17:07.613Z,1006.16
2023-05-01T09:18:07.704Z,1006.19
2023-05-01T09:19:07.594Z,1006.16
2023-05-01T09:20:07.678Z,1006.14
2023-05-01T09:21:07.604Z,1006.14
2023-05-01T09:22:07.552Z,1006.13
2023-05-01T09:23:07.572Z,1006.16
2023-05-01T09:24:07.535Z,1006.16
2023-05-01T09:25:07.545Z,1006.16
2023-05-01T09:26:07.533Z,1006.16
2023-05-01T09:27:07.534Z,1006.13
2023-05-01T09:28:07.502Z,1006.16
2023-05-01T09:29:07.503Z,1006.16
2023-05-01T09:30:07.461Z,1006.14
2023-05-01T09:31:07.476Z,1006.17
2023-05-01T09:32:07.482Z,1006.15
2023-05-01T09:33:07.512Z,1006.14
2023-05-01T09:34:07.441Z,1006.10
2023-05-01T09:35:07.428Z,1006.12
2023-05-01T09:36:07.393Z,1006.11
2023-05-01T09:37:07.411Z,1006.10
2023-05-01T09:38:07.418Z,1006.06
2023-05-01T09:39:07.384Z,1006.03
2023-05-01T09:40:07.406Z,1006.03
2023-05-01T09:41:07.391Z,1006.05
2023-05-01T09:42:07.329Z,1006.08
2023-05-01T09:43:07.343Z,1006.03
2023-05-01T09:44:07.322Z,1006.05
2023-05-01T09:45:07.311Z,1006.02
2023-05-01T09:46:07.506Z,1006.02
2023-05-01T09:47:07.306Z,1006.05
2023-05-01T09:48:07.308Z,1006.02
2023-05-01T09:49:07.277Z,1006.03
2023-05-01T09:50:07.260Z,1006.01
2023-05-01T09:51:07.263Z,1006.02
2023-05-01T09:52:07.240Z,1005.98
2023-05-01T09:53:07.245Z,1005.91
2023-05-01T09:54:07.214Z,1005.96
2023-05-01T09:55:07.210Z,1005.94
2023-05-01T09:56:07.190Z,1005.96
2023-05-01T09:57:07.211Z,1005.91
2023-05-01T09:58:07.158Z,1005.90
2023-05-01T09:59:07.178Z,1005.91
2023-05-01T10:00:07.181Z,1005.88
2023-05-01T10:01:07.196Z,1005.88
2023-05-01T10:02:07.163Z,1005.90
2023-05-01T10:03:08.589Z,1005.91
2023-05-01T10:04:07.241Z,1005.86
2023-05-01T10:05:07.104Z,1005.86
2023-05-01T10:06:07.090Z,1005.84
2023-05-01T10:07:07.108Z,1005.81
2023-05-01T10:08:07.060Z,1005.84
2023-05-01T10:09:07.046Z,1005.85
2023-05-01T10:10:07.053Z,1005.84
2023-05-01T10:11:07.048Z,1005.83
2023-05-01T10:12:07.031Z,1005.80
2023-05-01T10:13:07.057Z,1005.81
2023-05-01T10:14:07.034Z,1005.81
2023-05-01T10:15:21.046Z,1005.80
2023-05-01T10:16:08.036Z,1005.82
2023-05-01T10:17:07.199Z,1005.77
2023-05-01T10:18:07.003Z,1005.78
2023-05-01T10:19:06.966Z,1005.80
2023-05-01T10:20:06.941Z,1005.78
2023-05-01T10:21:06.935Z,1005.72
2023-05-01T10:22:06.898Z,1005.74
2023-05-01T10:23:06.923Z,1005.75
2023-05-01T10:24:06.925Z,1005.74
2023-05-01T10:25:06.906Z,1005.78
2023-05-01T10:26:07.194Z,1005.74
2023-05-01T10:27:06.864Z,1005.75
2023-05-01T10:28:06.864Z,1005.74
2023-05-01T10:29:06.828Z,1005.71
2023-05-01T10:30:06.826Z,1005.67
2023-05-01T10:31:06.849Z,1005.68
2023-05-01T10:32:06.829Z,1005.70
2023-05-01T10:33:06.818Z,1005.66
2023-05-01T10:34:06.783Z,1005.68
2023-05-01T10:35:06.776Z,1005.64
2023-05-01T10:36:06.816Z,1005.62
2023-05-01T10:37:06.796Z,1005.65
2023-05-01T10:38:06.753Z,1005.64
2023-05-01T10:39:06.712Z,1005.68
2023-05-01T10:40:06.741Z,1005.67
2023-05-01T10:41:06.718Z,1005.67
2023-05-01T10:42:06.738Z,1005.67
2023-05-01T10:43:06.743Z,1005.69
2023-05-01T10:44:06.672Z,1005.65
2023-05-01T10:45:06.680Z,1005.60
2023-05-01T10:46:06.679Z,1005.64
2023-05-01T10:47:06.840Z,1005.64
2023-05-01T10:48:06.676Z,1005.58
2023-05-01T10:49:06.634Z,1005.65
2023-05-01T10:50:06.601Z,1005.55
2023-05-01T10:51:06.615Z,1005.61
2023-05-01T10:52:06.599Z,1005.55
2023-05-01T10:53:06.599Z,1005.60
2023-05-01T10:54:06.560Z,1005.59
2023-05-01T10:55:06.558Z,1005.59
2023-05-01T10:56:06.543Z,1005.57
2023-05-01T10:57:06.598Z,1005.60
2023-05-01T10:58:06.529Z,1005.53
2023-05-01T10:59:06.579Z,1005.52
2023-05-01T11:00:06.514Z,1005.52
2023-05-01T11:01:06.515Z,1005.47
2023-05-01T11:02:06.506Z,1005.43
2023-05-01T11:03:06.634Z,1005.41
2023-05-01T11:04:06.451Z,1005.45
2023-05-01T11:05:06.553Z,1005.41
2023-05-01T11:06:06.573Z,1005.39
2023-05-01T11:07:06.502Z,1005.40
2023-05-01T11:08:06.421Z,1005.37
2023-05-01T11:09:06.414Z,1005.33
2023-05-01T11:10:06.415Z,1005.29
2023-05-01T11:11:06.400Z,1005.31
2023-05-01T11:12:06.359Z,1005.32
2023-05-01T11:13:06.387Z,1005.34
2023-05-01T11:14:06.377Z,1005.34
2023-05-01T11:15:06.374Z,1005.27
2023-05-01T11:16:06.349Z,1005.26
2023-05-01T11:17:06.358Z,1005.28
2023-05-01T11:18:06.513Z,1005.25
2023-05-01T11:19:06.502Z,1005.23
2023-05-01T11:20:06.310Z,1005.23
2023-05-01T11:21:06.311Z,1005.22
2023-05-01T11:22:06.279Z,1005.23
2023-05-01T11:23:06.282Z,1005.21
2023-05-01T11:24:06.255Z,1005.16
2023-05-01T11:25:06.256Z,1005.11
2023-05-01T11:26:06.281Z,1005.09
2023-05-01T11:27:06.243Z,1005.07
2023-05-01T11:28:06.220Z,1005.09
2023-05-01T11:29:06.233Z,1005.04
2023-05-01T11:30:06.210Z,1005.05
2023-05-01T11:31:06.192Z,1005.10
2023-05-01T11:32:06.270Z,1005.06
2023-05-01T11:33:07.112Z,1005.07
2023-05-01T11:34:06.171Z,1005.08
2023-05-01T11:35:06.153Z,1005.04
2023-05-01T11:36:06.198Z,1005.04
2023-05-01T11:37:06.117Z,1004.98
2023-05-01T11:38:06.114Z,1004.97
2023-05-01T11:39:06.148Z,1004.98
2023-05-01T11:40:06.100Z,1005.00
2023-05-01T11:41:06.093Z,1004.98
2023-05-01T11:42:06.118Z,1004.98
2023-05-01T11:43:06.074Z,1004.97
2023-05-01T11:44:06.055Z,1004.98
2023-05-01T11:45:06.014Z,1004.98
2023-05-01T11:46:06.059Z,1004.92
2023-05-01T11:47:06.056Z,1004.94
2023-05-01T11:48:06.137Z,1004.86
2023-05-01T11:49:06.220Z,1004.87
2023-05-01T11:50:06.029Z,1004.81
2023-05-01T11:51:05.960Z,1004.84
2023-05-01T11:52:05.974Z,1004.83
2023-05-01T11:53:05.933Z,1004.88
2023-05-01T11:54:05.935Z,1004.85
2023-05-01T11:55:05.937Z,1004.83
2023-05-01T11:56:10.859Z,1004.89
2023-05-01T11:57:06.929Z,1004.79
2023-05-01T11:58:05.900Z,1004.83
2023-05-01T11:59:05.875Z,1004.86
2023-05-01T12:00:05.866Z,1004.86
2023-05-01T12:01:05.846Z,1004.85
2023-05-01T12:02:05.898Z,1004.84
2023-05-01T12:03:06.253Z,1004.80
2023-05-01T12:04:05.909Z,1004.79
2023-05-01T12:05:05.995Z,1004.86